METAR Analyzer

一覧表示

Hello, Guest. (Login)

RJBB/KIX  -  大阪/関西

観測日時
2020-10-25 13:30 (UTC) (11分前)
気温
16
露点
9
湿数
7
相対湿度
63.1%
QNH
1018hPa
推定現地気圧
1017.4hPa
推定海面気圧
1018.0hPa
体感温度
9.3
(無風時)
17.2
HI
15.3
気温前日比
±0
体感温度前日比
+4
HI前日比
+0.2
水平視程
>10000m
鉛直視程
データなし
雲底高度
6000ft AGL
V/I
VMC (VFR)
RVR
No RVR data
卓越風
5kt from 110°
ガスト
No gust
降水
報告なし
その他の天気
報告なし
少しの雲 @ 3000ft AGL / 隙間のある雲 @ 6000ft AGL

RJBB 251330Z 11005KT 9999 FEW030 BKN060 16/09 Q1018 NOSIG

RJBE/UKB  -  神戸

観測日時
2020-10-25 13:00 (UTC) (41分前)
気温
16
露点
9
湿数
7
相対湿度
63.1%
QNH
1018hPa
推定現地気圧
1017.4hPa
推定海面気圧
1018.0hPa
体感温度
8.7
(無風時)
17.2
HI
15.3
気温前日比
+2
体感温度前日比
+4.4
HI前日比
+2.6
水平視程
>10000m
鉛直視程
データなし
雲底高度
4500ft AGL
V/I
VMC (VFR)
RVR
No RVR data
卓越風
6kt from 60°
ガスト
No gust
降水
報告なし
その他の天気
報告なし
隙間のある雲 @ 4500ft AGL

RJBE 251300Z 06006KT 9999 BKN045 16/09 Q1018

RJBM  -  舞鶴基地

観測日時
2020-10-25 13:00 (UTC) (41分前)
気温
12
露点
9
湿数
3
相対湿度
81.9%
QNH
1018.3hPa
推定現地気圧
1017.6hPa
推定海面気圧
1018.3hPa
体感温度
7.9
(無風時)
14.3
HI
11.4
気温前日比
±0
体感温度前日比
-0.1
HI前日比
+0.3
水平視程
>10000m
鉛直視程
データなし
雲底高度
No dense clouds
V/I
VMC (VFR)
RVR
No RVR data
卓越風
2kt from 170°
ガスト
No gust
降水
報告なし
その他の天気
報告なし
少しの(2/8) 層積雲 @ 5000ft AGL

RJBM 251300Z 17002KT 9999 FEW050 12/09 Q1018 RMK 2SC050 A3007

4.4msec